Airfield :







YOU CAN JOIN US ON...

 
LOGIN :

Register | Disclaimer

   EN    FR    IT 

 









Legend :    VFR   Marginal VFR   IFR   Intensive IFR   Very Intensive IFR
Visi :
Ceiling :
>= 8 km
>= 3000ft
5 to 8 km
1000 to 3000 ft
1500m to 5 km
500 to 1000 ft
800 to 1500m
200 to 500 ft
< 800m
< 200 ft
Symbols :   Thunderstorms  Fog  Heavy snow  Heavy precipitations  Wind > 20 kt






- Airport Elevation : 100 ft
- IATA code : PSM


KPSM - Portsmouth International at Pease

CURRENT METAR :
  • 151156Z 25015G24KT 10SM FEW050 SCT110 BKN140 06/M02 A2930 RMK AO2A PK WND 24026/13 SLP925 70101 T00551019 10102 20049 52030

EXPIRED METARs :
  • 151056Z 25018G25KT 10SM FEW050 BKN110 OVC150 06/M02 A2927 RMK AO2A PK WND 23026/01 SLP915 T00561016
  • 150956Z 25019G25KT 10SM OVC110 05/M01 A2924 RMK AO2A SLP905 T00531010

TAF KPSM
Valid from the 15 at 12:00 until the 16 at 12:00 UTC


151120Z 1512/1612 24018G27KT P6SM FEW050 BKN100
FM151600 25025G35KT P6SM SCT250
FM160500 27014G20KT P6SM SKC
FM161000 26011KT P6SM SKC



MET'MAP, your aeronautical weather chart ! - Copyright ORBIFLY December 2007 - Disclaimer

ORBIFLY MET'MAP TEAM :

Programming & Development : Alexandra Zaïnal
Concept & original design : Baudouin d'Aumeries
Assistance for programming : Marc-Olivier Méhu
Technical & hardware support : Manuel Goepfert

Contact : metmap@orbifly.com




SOURCES & CREDITS :

   NOAA